Time;durP1;ratioP1;P1;durP2;ratioP2;P2;SDS_P1;SDS_P2;PMS_P1;PMS_P2;Temp;Humidity;BMP_temperature;BMP_pressure;BME280_temperature;BME280_humidity;BME280_pressure;Samples;Min_cycle;Max_cycle;Signal;HPM_P1;HPM_P2
2023/11/04 00:00:51;;;;;;;14.02;4.05;;;;;;;19.02;100.00;98946.31;5008818;28;20042;-64
2023/11/04 00:03:17;;;;;;;17.52;4.30;;;;;;;20.25;100.00;99159.94;5009844;28;20037;-63
2023/11/04 00:05:43;;;;;;;11.60;3.50;;;;;;;20.00;100.00;99117.72;5009537;28;20046;-69
2023/11/04 00:08:09;;;;;;;17.17;3.70;;;;;;;20.09;100.00;99133.25;5009647;28;20105;-65
2023/11/04 00:10:35;;;;;;;12.05;3.78;;;;;;;20.00;100.00;99134.31;5009426;28;20049;-65
2023/11/04 00:13:00;;;;;;;17.63;4.15;;;;;;;20.25;100.00;99174.78;5009560;28;20101;-63
2023/11/04 00:15:26;;;;;;;16.70;3.97;;;;;;;20.06;100.00;99146.41;5008696;28;20075;-69
2023/11/04 00:17:51;;;;;;;18.20;3.80;;;;;;;20.26;100.00;99164.31;5009285;28;20093;-62
2023/11/04 00:20:17;;;;;;;18.05;4.03;;;;;;;20.14;100.00;99141.00;5009142;28;20053;-62
2023/11/04 00:22:42;;;;;;;14.77;4.25;;;;;;;20.22;100.00;99151.28;5009369;28;20038;-65
2023/11/04 00:25:08;;;;;;;16.80;3.80;;;;;;;19.99;100.00;99121.28;5009544;28;20026;-64
2023/11/04 00:27:34;;;;;;;17.05;4.28;;;;;;;20.02;100.00;99124.66;4976359;28;20072;-65
2023/11/04 00:29:59;;;;;;;17.58;4.03;;;;;;;20.16;100.00;99144.44;5008677;28;20734;-65
2023/11/04 00:32:25;;;;;;;13.75;3.55;;;;;;;20.10;100.00;99145.44;5025853;28;20044;-63
2023/11/04 00:34:50;;;;;;;18.60;4.25;;;;;;;20.13;100.00;99155.00;5031634;28;20029;-65
2023/11/04 00:37:16;;;;;;;23.95;5.25;;;;;;;20.08;100.00;99147.25;5031647;28;20033;-65
2023/11/04 00:39:41;;;;;;;13.48;3.72;;;;;;;20.03;100.00;99138.63;5030352;28;20052;-64
2023/11/04 00:42:07;;;;;;;15.52;4.55;;;;;;;20.06;100.00;99137.69;5031342;28;20040;-65
2023/11/04 00:44:32;;;;;;;16.30;4.13;;;;;;;20.02;100.00;99139.53;5030855;28;20029;-66
2023/11/04 00:46:58;;;;;;;17.52;4.82;;;;;;;20.08;100.00;99147.25;5031178;28;20129;-66
2023/11/04 00:49:23;;;;;;;19.52;5.38;;;;;;;19.84;100.00;99097.13;5031074;28;20026;-64
2023/11/04 00:51:49;;;;;;;14.75;4.78;;;;;;;20.11;100.00;99144.56;5030303;28;20029;-63
2023/11/04 00:54:15;;;;;;;19.38;4.32;;;;;;;20.09;100.00;99143.72;5031272;28;20026;-64
2023/11/04 00:56:41;;;;;;;19.13;5.30;;;;;;;19.94;100.00;99110.00;5031298;28;20037;-65
2023/11/04 00:59:06;;;;;;;19.27;4.70;;;;;;;20.20;100.00;99146.94;5023632;28;20030;-66
2023/11/04 01:01:31;;;;;;;26.30;5.07;;;;;;;19.78;100.00;99081.53;5011577;28;20053;-63
2023/11/04 01:03:57;;;;;;;19.17;5.13;;;;;;;20.05;100.00;99113.28;5010832;28;20030;-63
2023/11/04 01:06:23;;;;;;;22.58;5.65;;;;;;;19.82;100.00;99077.09;5011479;28;20448;-63
2023/11/04 01:08:49;;;;;;;22.58;5.07;;;;;;;20.26;100.00;99155.56;5010880;28;20112;-65
2023/11/04 01:11:14;;;;;;;22.38;4.82;;;;;;;20.34;100.00;99161.50;5026525;28;20052;-65
2023/11/04 01:13:40;;;;;;;25.13;5.05;;;;;;;20.36;100.00;99165.78;5011078;28;20036;-70
2023/11/04 01:16:06;;;;;;;18.40;4.63;;;;;;;20.34;100.00;99154.47;5038118;28;20044;-65
2023/11/04 01:18:31;;;;;;;16.05;5.18;;;;;;;20.36;100.00;99154.44;5050722;28;20514;-64
2023/11/04 01:20:57;;;;;;;19.50;4.70;;;;;;;20.00;100.00;99096.78;5050148;28;20021;-64
2023/11/04 01:23:22;;;;;;;18.48;5.10;;;;;;;20.20;100.00;99128.59;5050115;28;20032;-64
2023/11/04 01:25:48;;;;;;;15.15;5.65;;;;;;;20.37;100.00;99153.53;5050321;28;20025;-65
2023/11/04 01:28:14;;;;;;;22.10;4.47;;;;;;;20.32;100.00;99151.03;5050042;28;20032;-66
2023/11/04 01:30:39;;;;;;;21.23;4.55;;;;;;;20.28;100.00;99149.38;5050330;28;20025;-64
2023/11/04 01:33:05;;;;;;;19.83;5.57;;;;;;;20.26;100.00;99129.34;5033028;28;20080;-65
2023/11/04 01:35:30;;;;;;;22.13;4.70;;;;;;;20.21;100.00;99137.31;5050496;28;20021;-63
2023/11/04 01:37:56;;;;;;;16.23;5.25;;;;;;;20.17;100.00;99131.28;5050049;28;20400;-64
2023/11/04 01:40:21;;;;;;;23.33;4.78;;;;;;;20.08;100.00;99128.91;5050445;28;20029;-65
2023/11/04 01:42:47;;;;;;;18.98;4.63;;;;;;;20.22;100.00;99138.19;5049763;28;20029;-66
2023/11/04 01:45:12;;;;;;;18.05;5.07;;;;;;;20.22;100.00;99132.94;5049758;28;20040;-64
2023/11/04 01:47:42;;;;;;;17.08;4.07;;;;;;;20.14;100.00;99131.38;5050068;28;20028;-66
2023/11/04 01:50:08;;;;;;;25.35;6.40;;;;;;;20.21;100.00;99137.31;5049882;28;20029;-64
2023/11/04 01:52:37;;;;;;;17.73;5.28;;;;;;;20.20;100.00;99135.63;5049582;28;20514;-66
2023/11/04 01:55:04;;;;;;;19.02;5.13;;;;;;;19.80;100.00;99069.28;5050235;28;20029;-67
2023/11/04 01:57:30;;;;;;;20.98;4.93;;;;;;;20.25;100.00;99127.63;5049482;28;20028;-66
2023/11/04 01:59:56;;;;;;;17.48;4.65;;;;;;;20.19;100.00;99132.13;5049379;28;20052;-66
2023/11/04 02:02:22;;;;;;;19.70;5.20;;;;;;;20.22;100.00;99139.03;5049536;28;20025;-68
2023/11/04 02:04:48;;;;;;;25.98;5.10;;;;;;;19.84;100.00;99059.63;5049947;28;20166;-69
2023/11/04 02:07:13;;;;;;;17.98;4.60;;;;;;;20.26;100.00;99127.63;5049605;28;20159;-65
2023/11/04 02:09:39;;;;;;;21.63;4.25;;;;;;;20.22;100.00;99122.47;5049602;28;20083;-63
2023/11/04 02:12:05;;;;;;;18.27;4.82;;;;;;;20.20;100.00;99120.75;5049485;28;20028;-66
2023/11/04 02:14:30;;;;;;;21.08;5.40;;;;;;;19.91;100.00;99055.94;5049806;28;20021;-65
2023/11/04 02:16:56;;;;;;;15.32;5.28;;;;;;;20.29;100.00;99118.81;5049339;28;20025;-66
2023/11/04 02:19:22;;;;;;;21.73;4.80;;;;;;;20.02;100.00;99072.25;5049781;28;20075;-65
2023/11/04 02:21:47;;;;;;;18.30;4.78;;;;;;;20.25;100.00;99118.03;5049310;28;20037;-65
2023/11/04 02:24:13;;;;;;;27.63;6.10;;;;;;;20.22;100.00;99118.09;5049317;28;20090;-65
2023/11/04 02:26:38;;;;;;;19.10;4.35;;;;;;;20.18;100.00;99095.47;5031203;28;20104;-65
2023/11/04 02:29:04;;;;;;;22.55;5.50;;;;;;;20.12;100.00;99101.72;5049041;28;20033;-69
2023/11/04 02:31:29;;;;;;;13.10;3.90;;;;;;;19.91;100.00;99070.81;5049540;28;20108;-64
2023/11/04 02:33:55;;;;;;;17.42;4.15;;;;;;;20.08;100.00;99104.47;5049454;28;20040;-66
2023/11/04 02:36:21;;;;;;;18.55;4.60;;;;;;;19.34;100.00;98987.44;5049650;28;20104;-67
2023/11/04 02:38:46;;;;;;;17.65;4.43;;;;;;;20.10;100.00;99111.41;5049743;28;20444;-65
2023/11/04 02:41:12;;;;;;;17.35;4.40;;;;;;;20.14;100.00;99114.81;5049070;28;20087;-65
2023/11/04 02:43:37;;;;;;;25.17;5.60;;;;;;;19.75;100.00;99059.78;5049882;28;20415;-65
2023/11/04 02:46:04;;;;;;;21.10;5.07;;;;;;;20.12;100.00;99122.69;5049265;28;20027;-64
2023/11/04 02:48:29;;;;;;;15.40;4.45;;;;;;;19.74;100.00;99058.94;5049653;28;20037;-63
2023/11/04 02:50:55;;;;;;;19.85;5.63;;;;;;;20.08;100.00;99122.81;5049483;28;20481;-64
2023/11/04 02:53:20;;;;;;;17.67;5.90;;;;;;;19.48;100.00;99119.75;5049243;28;20037;-65
2023/11/04 02:55:45;;;;;;;18.70;7.22;;;;;;;19.06;100.00;99128.41;5049064;28;20028;-64
2023/11/04 02:58:11;;;;;;;16.10;7.10;;;;;;;18.44;100.00;99126.88;5049266;28;20059;-64
2023/11/04 03:00:36;;;;;;;17.55;8.25;;;;;;;17.72;100.00;99060.94;5048994;28;20395;-62
2023/11/04 03:03:02;;;;;;;18.90;7.50;;;;;;;17.61;100.00;99038.50;5049063;28;20391;-64
2023/11/04 03:05:28;;;;;;;20.23;8.02;;;;;;;17.92;100.00;99113.75;5048893;28;20467;-66
2023/11/04 03:07:53;;;;;;;15.73;7.88;;;;;;;17.82;100.00;99109.56;5049363;28;20450;-64
2023/11/04 03:10:18;;;;;;;19.02;7.88;;;;;;;17.88;100.00;99104.25;5049196;28;20120;-66
2023/11/04 03:12:44;;;;;;;15.50;8.05;;;;;;;17.89;100.00;99099.88;5049139;28;20040;-64
2023/11/04 03:15:10;;;;;;;23.85;8.45;;;;;;;17.95;100.00;99100.66;5051816;28;20048;-62
2023/11/04 03:17:35;;;;;;;18.52;8.88;;;;;;;18.08;100.00;99098.75;5050017;28;20029;-62
2023/11/04 03:20:03;;;;;;;20.20;9.45;;;;;;;18.01;100.00;99068.38;5053036;28;20486;-64
2023/11/04 03:22:29;;;;;;;17.38;8.52;;;;;;;18.21;100.00;99091.56;5052727;28;20021;-67
2023/11/04 03:24:54;;;;;;;18.13;8.30;;;;;;;17.86;100.00;99025.06;5052165;28;20032;-66
2023/11/04 03:27:20;;;;;;;21.33;9.40;;;;;;;18.14;100.00;99092.53;5053006;28;20390;-65
2023/11/04 03:29:45;;;;;;;15.10;7.50;;;;;;;18.19;100.00;99082.88;5052366;28;20025;-64
2023/11/04 03:32:11;;;;;;;12.48;7.30;;;;;;;18.18;100.00;99062.88;5052432;28;20754;-64
2023/11/04 03:34:36;;;;;;;17.35;7.78;;;;;;;18.37;100.00;99075.63;5052876;28;20063;-67
2023/11/04 03:37:02;;;;;;;20.10;8.27;;;;;;;18.01;99.44;99010.94;5052711;28;20025;-64
2023/11/04 03:39:32;;;;;;;20.30;8.27;;;;;;;18.38;99.66;99054.69;5051922;28;20051;-65
2023/11/04 03:41:59;;;;;;;24.80;8.70;;;;;;;18.49;99.22;99069.31;5039971;28;20039;-64
2023/11/04 03:44:24;;;;;;;21.15;8.55;;;;;;;18.58;99.24;99082.25;5034275;28;20452;-64
2023/11/04 03:46:50;;;;;;;18.42;7.93;;;;;;;18.59;98.80;99089.16;5052618;28;20063;-65
2023/11/04 03:49:16;;;;;;;16.80;7.40;;;;;;;18.68;98.64;99103.81;5034621;28;20031;-65
2023/11/04 03:51:42;;;;;;;18.40;7.85;;;;;;;18.68;99.92;99114.28;5052502;28;20120;-65
2023/11/04 03:54:07;;;;;;;15.95;8.43;;;;;;;18.29;100.00;99096.66;5032549;28;20418;-66
2023/11/04 03:56:33;;;;;;;16.90;8.00;;;;;;;18.30;100.00;99106.22;5052000;28;20120;-65
2023/11/04 03:58:58;;;;;;;18.40;8.63;;;;;;;18.06;100.00;99100.50;5051992;28;20395;-66
2023/11/04 04:01:24;;;;;;;15.18;8.38;;;;;;;18.07;100.00;99090.94;5057228;28;20036;-65
2023/11/04 04:03:49;;;;;;;18.48;8.10;;;;;;;18.10;100.00;99093.47;5062209;28;20715;-63
2023/11/04 04:06:18;;;;;;;15.38;7.68;;;;;;;17.61;100.00;98996.75;5052211;28;20025;-65
2023/11/04 04:08:43;;;;;;;14.60;7.55;;;;;;;17.99;100.00;99064.91;5051487;28;20025;-64
2023/11/04 04:11:10;;;;;;;18.52;7.95;;;;;;;18.13;100.00;99083.00;5052218;28;20040;-62
2023/11/04 04:13:35;;;;;;;15.80;7.93;;;;;;;17.85;100.00;99018.13;5051531;28;20024;-64
2023/11/04 04:16:01;;;;;;;20.27;8.57;;;;;;;18.32;100.00;99098.34;5051988;28;20044;-65
2023/11/04 04:18:26;;;;;;;20.67;8.38;;;;;;;18.22;100.00;99095.91;5051825;28;20486;-64
2023/11/04 04:20:52;;;;;;;16.23;8.32;;;;;;;18.18;100.00;99094.22;5051973;28;20025;-64
2023/11/04 04:23:17;;;;;;;16.02;7.80;;;;;;;17.79;100.00;99021.69;5051277;28;20025;-66
2023/11/04 04:25:43;;;;;;;18.67;8.48;;;;;;;18.23;100.00;99075.84;5051570;28;20028;-64
2023/11/04 04:28:08;;;;;;;14.65;7.95;;;;;;;18.20;100.00;99052.41;5051571;28;20028;-64
2023/11/04 04:30:34;;;;;;;13.68;8.30;;;;;;;18.32;100.00;99048.69;5051726;28;20029;-64
2023/11/04 04:32:59;;;;;;;14.98;7.95;;;;;;;18.35;100.00;99030.38;5051725;28;20017;-65
2023/11/04 04:35:25;;;;;;;19.98;8.05;;;;;;;18.32;100.00;99036.53;5051294;28;20045;-66
2023/11/04 04:37:51;;;;;;;17.65;9.02;;;;;;;18.39;100.00;99032.91;5050713;28;20403;-65
2023/11/04 04:40:16;;;;;;;19.83;8.23;;;;;;;18.34;100.00;99029.50;5038383;28;20029;-64
2023/11/04 04:42:42;;;;;;;19.80;7.90;;;;;;;18.22;100.00;99029.75;5051035;28;20056;-64
2023/11/04 04:45:08;;;;;;;14.85;7.90;;;;;;;18.11;100.00;99020.31;5051205;28;20025;-64
2023/11/04 04:47:36;;;;;;;16.83;8.68;;;;;;;18.01;100.00;99023.97;5051199;28;20029;-64
2023/11/04 04:50:04;;;;;;;19.88;8.45;;;;;;;17.89;100.00;99011.94;5051117;28;20063;-63
2023/11/04 04:52:30;;;;;;;18.75;8.10;;;;;;;17.59;100.00;99044.63;5050327;28;20025;-66
2023/11/04 04:54:55;;;;;;;19.13;8.50;;;;;;;17.31;100.00;99026.75;5044651;28;20047;-64
2023/11/04 04:57:21;;;;;;;15.75;8.45;;;;;;;17.59;100.00;99071.56;5050753;28;20025;-65
2023/11/04 04:59:46;;;;;;;17.42;9.05;;;;;;;17.66;100.00;99072.34;5033043;28;20029;-67
2023/11/04 05:02:12;;;;;;;16.65;8.88;;;;;;;17.52;100.00;99056.03;5051077;28;20040;-64
2023/11/04 05:04:38;;;;;;;18.45;9.43;;;;;;;17.56;100.00;99042.91;5051081;28;20033;-63
2023/11/04 05:07:03;;;;;;;29.50;10.20;;;;;;;17.74;100.00;99040.91;5050456;28;20043;-66
2023/11/04 05:09:28;;;;;;;17.02;8.88;;;;;;;17.78;100.00;99030.41;5050801;28;20021;-65
2023/11/04 05:11:54;;;;;;;16.85;9.02;;;;;;;17.39;100.00;98969.25;5050819;28;20033;-62
2023/11/04 05:14:19;;;;;;;19.02;9.30;;;;;;;17.83;100.00;99035.56;5050760;28;20036;-67
2023/11/04 05:16:45;;;;;;;17.85;8.55;;;;;;;17.86;100.00;99037.28;5049384;28;20127;-63
2023/11/04 05:19:10;;;;;;;23.65;8.70;;;;;;;17.99;100.00;99035.34;5050960;28;20028;-65
2023/11/04 05:21:36;;;;;;;23.55;8.98;;;;;;;17.65;100.00;99041.06;5051004;28;20044;-68
2023/11/04 05:24:01;;;;;;;18.25;8.68;;;;;;;17.63;100.00;99035.84;5051232;28;20021;-66
2023/11/04 05:26:27;;;;;;;17.27;8.20;;;;;;;17.70;100.00;99034.03;5050782;28;20116;-65
2023/11/04 05:28:52;;;;;;;17.10;8.35;;;;;;;17.86;100.00;99045.94;5050979;28;20119;-65
2023/11/04 05:31:18;;;;;;;21.13;8.85;;;;;;;17.52;100.00;99009.06;5051016;28;20091;-65
2023/11/04 05:33:44;;;;;;;23.77;10.15;;;;;;;17.76;100.00;99054.81;5050876;28;20087;-66
2023/11/04 05:36:10;;;;;;;22.17;9.50;;;;;;;17.69;100.00;99045.34;5050626;28;20028;-65
2023/11/04 05:38:36;;;;;;;21.92;9.32;;;;;;;17.72;100.00;99021.81;5051059;28;20021;-67
2023/11/04 05:41:01;;;;;;;20.20;8.95;;;;;;;17.61;100.00;98994.13;5050936;28;20039;-66
2023/11/04 05:43:27;;;;;;;17.02;8.93;;;;;;;17.52;100.00;98978.63;5050849;28;20029;-66
2023/11/04 05:45:52;;;;;;;17.30;8.38;;;;;;;17.67;100.00;99005.34;5050919;28;20032;-65
2023/11/04 05:48:19;;;;;;;15.85;8.75;;;;;;;17.76;100.00;99021.72;5050787;28;20028;-66
2023/11/04 05:50:45;;;;;;;17.73;9.32;;;;;;;17.86;100.00;99034.66;5050116;28;20495;-67
2023/11/04 05:53:11;;;;;;;18.10;8.93;;;;;;;17.86;100.00;99027.69;5050728;28;21126;-66
2023/11/04 05:55:36;;;;;;;20.30;9.43;;;;;;;17.92;100.00;99043.25;5050417;28;20021;-66
2023/11/04 05:58:02;;;;;;;25.10;8.93;;;;;;;17.34;100.00;98964.09;5050598;28;20036;-65
2023/11/04 06:00:27;;;;;;;16.80;8.43;;;;;;;17.74;100.00;99049.59;5050425;28;20646;-65
2023/11/04 06:02:53;;;;;;;16.35;8.10;;;;;;;17.69;100.00;99042.75;5055427;28;20395;-65
2023/11/04 06:05:19;;;;;;;18.02;7.85;;;;;;;17.66;100.00;99042.78;5067602;28;20024;-66
2023/11/04 06:07:44;;;;;;;20.52;9.98;;;;;;;17.70;100.00;99057.53;5070198;28;20035;-66
2023/11/04 06:10:11;;;;;;;23.67;9.70;;;;;;;17.64;100.00;99032.38;5070504;28;20024;-65
2023/11/04 06:12:37;;;;;;;30.58;15.57;;;;;;;17.47;100.00;98975.22;5070547;28;20028;-64
2023/11/04 06:15:04;;;;;;;32.78;16.58;;;;;;;17.91;100.00;99019.78;5070297;28;20105;-65
2023/11/04 06:17:30;;;;;;;31.70;16.08;;;;;;;17.98;100.00;99008.38;5065587;28;20031;-66
2023/11/04 06:19:56;;;;;;;24.15;12.10;;;;;;;17.59;100.00;98924.59;5049903;28;20112;-67
2023/11/04 06:22:22;;;;;;;22.58;9.18;;;;;;;18.16;100.00;98988.06;5050142;28;20056;-65
2023/11/04 06:24:48;;;;;;;16.48;8.25;;;;;;;18.24;100.00;98971.34;5050324;28;20467;-66
2023/11/04 06:27:15;;;;;;;16.63;8.18;;;;;;;18.30;100.00;98969.50;5049955;28;20021;-66
2023/11/04 06:29:41;;;;;;;15.02;6.90;;;;;;;18.36;100.00;98958.94;4989736;28;20134;-65
2023/11/04 06:32:06;;;;;;;14.82;7.00;;;;;;;18.34;100.00;98942.44;4994896;28;20044;-66
2023/11/04 06:34:32;;;;;;;14.05;6.15;;;;;;;18.40;100.00;98935.31;5045048;28;20029;-67
2023/11/04 06:36:57;;;;;;;18.00;6.57;;;;;;;18.43;100.00;98932.66;5049862;28;20025;-66
2023/11/04 06:39:23;;;;;;;10.75;5.60;;;;;;;18.43;100.00;98939.66;5049982;28;20037;-65
2023/11/04 06:41:48;;;;;;;13.25;5.00;;;;;;;18.37;100.00;98931.94;5050084;28;20118;-65
2023/11/04 06:44:14;;;;;;;16.83;5.78;;;;;;;18.50;100.00;98920.31;5049952;28;20108;-66
2023/11/04 06:46:45;;;;;;;14.75;5.97;;;;;;;18.46;100.00;98910.84;5050053;28;20028;-66
2023/11/04 06:49:11;;;;;;;16.70;5.32;;;;;;;18.46;100.00;98896.91;5034932;28;20029;-66
2023/11/04 06:51:36;;;;;;;16.92;6.30;;;;;;;18.55;100.00;98918.47;5053828;28;20032;-66
2023/11/04 06:54:02;;;;;;;26.83;11.00;;;;;;;18.31;100.00;98913.78;5053681;28;20029;-66
2023/11/04 06:56:31;;;;;;;30.15;12.50;;;;;;;18.02;100.00;98887.31;5053684;28;20079;-65
2023/11/04 06:58:56;;;;;;;24.73;10.45;;;;;;;18.09;100.00;98885.44;5054075;28;20029;-66
2023/11/04 07:01:22;;;;;;;22.50;8.57;;;;;;;17.98;100.00;98864.78;5054285;28;20032;-65
2023/11/04 07:03:47;;;;;;;23.85;8.77;;;;;;;18.05;100.00;98861.13;5054064;28;20029;-67
2023/11/04 07:06:14;;;;;;;22.55;9.32;;;;;;;18.11;100.00;98855.78;5053705;28;20107;-66
2023/11/04 07:08:40;;;;;;;17.35;8.80;;;;;;;18.13;100.00;98831.41;5053271;28;20480;-65
2023/11/04 07:11:05;;;;;;;22.15;8.80;;;;;;;18.19;100.00;98816.44;5053637;28;20049;-66
2023/11/04 07:13:31;;;;;;;20.20;8.65;;;;;;;17.95;100.00;98761.22;5053686;28;20545;-65
2023/11/04 07:16:00;;;;;;;21.70;7.90;;;;;;;18.47;100.00;98835.91;5053427;28;20037;-69
2023/11/04 07:18:25;;;;;;;25.35;8.88;;;;;;;18.58;100.00;98853.09;5052969;28;20039;-66
2023/11/04 07:20:51;;;;;;;21.80;9.18;;;;;;;18.68;100.00;98837.19;5053397;28;20033;-65
2023/11/04 07:23:18;;;;;;;24.92;9.20;;;;;;;18.77;100.00;98850.06;5035647;28;20056;-66
2023/11/04 07:25:44;;;;;;;26.98;10.45;;;;;;;18.51;100.00;98794.00;5035405;28;20090;-65
2023/11/04 07:28:10;;;;;;;20.15;8.43;;;;;;;18.76;100.00;98838.72;5053519;28;20029;-66
2023/11/04 07:30:37;;;;;;;23.20;7.25;;;;;;;19.14;100.00;98845.75;5052868;28;20112;-66
2023/11/04 07:33:03;;;;;;;35.30;7.70;;;;;;;19.53;100.00;98854.38;5050884;28;20574;-65
2023/11/04 07:35:29;;;;;;;19.85;6.00;;;;;;;19.90;100.00;98854.31;5051633;28;20123;-66
2023/11/04 07:37:56;;;;;;;33.67;7.10;;;;;;;20.60;100.00;98846.19;5052990;28;20025;-66
2023/11/04 07:40:23;;;;;;;18.02;3.58;;;;;;;20.58;100.00;98777.22;5053339;28;20457;-65
2023/11/04 07:42:50;;;;;;;24.65;6.05;;;;;;;21.42;100.00;98861.13;5053168;28;20040;-66
2023/11/04 07:45:15;;;;;;;29.13;5.55;;;;;;;21.62;100.00;98847.34;5053153;28;20029;-67
2023/11/04 07:47:43;;;;;;;21.02;5.30;;;;;;;22.00;100.00;98837.28;5034747;28;20032;-65
2023/11/04 07:50:15;;;;;;;33.00;8.02;;;;;;;22.13;100.00;98866.59;5001426;28;20044;-65
2023/11/04 07:52:41;;;;;;;22.02;5.30;;;;;;;22.24;100.00;98858.31;5052959;28;20094;-66
2023/11/04 07:55:08;;;;;;;19.52;5.18;;;;;;;22.39;100.00;98844.66;5052970;28;20029;-66
2023/11/04 07:57:37;;;;;;;21.20;4.63;;;;;;;22.51;100.00;98866.13;5052983;28;20037;-65
2023/11/04 08:00:10;;;;;;;19.40;5.30;;;;;;;22.67;100.00;98867.25;5051962;28;20033;-66
2023/11/04 08:02:40;;;;;;;32.83;7.30;;;;;;;22.90;100.00;98841.81;5052670;28;20545;-66
2023/11/04 08:05:07;;;;;;;13.70;3.78;;;;;;;22.77;99.55;98787.03;5052236;28;20032;-67
2023/11/04 08:07:33;;;;;;;23.70;6.07;;;;;;;23.18;98.69;98833.69;5017211;28;20140;-67
2023/11/04 08:09:59;;;;;;;21.50;4.07;;;;;;;23.30;98.47;98834.94;5052699;28;20112;-66
2023/11/04 08:12:25;;;;;;;29.63;6.18;;;;;;;22.97;97.81;98790.66;5052540;28;20043;-67
2023/11/04 08:14:50;;;;;;;25.60;5.13;;;;;;;23.37;98.15;98846.94;5052623;28;20053;-66
2023/11/04 08:17:17;;;;;;;34.88;6.78;;;;;;;23.33;97.36;98820.78;5052681;28;20025;-66
2023/11/04 08:19:42;;;;;;;18.05;4.40;;;;;;;23.50;96.59;98839.41;5052442;28;20033;-66
2023/11/04 08:22:09;;;;;;;24.88;6.03;;;;;;;23.57;96.16;98824.19;5052041;28;20027;-65
2023/11/04 08:24:36;;;;;;;33.45;6.35;;;;;;;23.59;95.59;98823.19;5052345;28;20032;-66
2023/11/04 08:27:02;;;;;;;46.40;21.95;;;;;;;23.59;95.66;98817.91;5052222;28;20406;-66
2023/11/04 08:29:28;;;;;;;52.28;20.88;;;;;;;23.65;95.39;98808.03;5034739;28;20040;-64
2023/11/04 08:31:53;;;;;;;46.58;17.13;;;;;;;23.61;95.17;98814.38;5052099;28;20025;-65
2023/11/04 08:34:19;;;;;;;23.50;5.22;;;;;;;23.55;94.92;98787.38;5051914;28;20032;-66
2023/11/04 08:36:45;;;;;;;27.27;5.78;;;;;;;23.51;94.57;98779.66;5052137;28;20047;-66
2023/11/04 08:39:11;;;;;;;20.50;7.07;;;;;;;23.58;94.49;98781.94;5052162;28;20103;-66
2023/11/04 08:41:36;;;;;;;36.95;7.95;;;;;;;23.32;94.12;98724.31;5051712;28;20617;-66
2023/11/04 08:44:03;;;;;;;29.25;6.05;;;;;;;23.52;93.91;98729.53;5051791;28;20446;-66
2023/11/04 08:46:29;;;;;;;42.97;12.02;;;;;;;23.29;93.64;98690.19;5051627;28;20048;-66
2023/11/04 08:48:54;;;;;;;24.92;5.20;;;;;;;23.69;93.25;98749.00;5051930;28;20399;-66
2023/11/04 08:51:21;;;;;;;25.90;5.50;;;;;;;23.75;93.26;98739.06;5052023;28;20036;-66
2023/11/04 08:53:48;;;;;;;34.92;6.88;;;;;;;23.78;92.59;98727.53;5051976;28;20032;-65
2023/11/04 08:56:14;;;;;;;29.13;5.95;;;;;;;23.84;92.57;98726.38;5052003;28;20494;-69
2023/11/04 08:58:42;;;;;;;34.78;6.90;;;;;;;23.94;91.56;98705.75;5051664;28;20028;-65
2023/11/04 09:01:08;;;;;;;16.40;4.47;;;;;;;24.00;91.45;98652.75;5051696;28;20041;-65
2023/11/04 09:03:33;;;;;;;27.05;5.35;;;;;;;24.09;90.78;98675.19;5051782;28;20087;-67
2023/11/04 09:05:59;;;;;;;28.52;5.60;;;;;;;24.10;90.00;98624.19;5051561;28;20028;-67
2023/11/04 09:08:24;;;;;;;24.90;5.10;;;;;;;24.14;89.78;98623.97;5051885;28;20024;-66
2023/11/04 09:10:49;;;;;;;22.90;5.57;;;;;;;24.23;89.22;98628.78;5050835;28;20116;-66
2023/11/04 09:13:15;;;;;;;52.65;7.95;;;;;;;23.95;88.91;98544.94;5051094;28;20047;-66
2023/11/04 09:15:42;;;;;;;24.95;4.38;;;;;;;24.51;88.31;98611.59;5051190;28;20045;-67
2023/11/04 09:18:08;;;;;;;37.30;5.35;;;;;;;24.57;87.14;98570.84;5033749;28;20037;-65
2023/11/04 09:20:34;;;;;;;46.10;7.72;;;;;;;24.52;86.04;98591.34;5051106;28;20043;-67
2023/11/04 09:23:00;;;;;;;28.27;5.35;;;;;;;24.62;86.28;98620.75;5050790;28;20064;-66
2023/11/04 09:25:26;;;;;;;53.38;6.95;;;;;;;24.67;86.14;98634.59;5051017;28;20033;-67
2023/11/04 09:27:51;;;;;;;47.20;7.80;;;;;;;24.73;84.64;98623.72;5051128;28;20150;-67
2023/11/04 09:30:17;;;;;;;36.97;7.60;;;;;;;24.64;84.73;98640.00;5050741;28;20025;-67
2023/11/04 09:32:44;;;;;;;26.73;6.80;;;;;;;24.65;85.10;98634.69;5050536;28;20035;-65
2023/11/04 09:35:18;;;;;;;37.70;5.60;;;;;;;24.58;83.93;98620.03;5050535;28;20068;-65
2023/11/04 09:37:44;;;;;;;17.20;4.10;;;;;;;24.63;84.56;98638.28;5050826;28;20036;-66
2023/11/04 09:40:11;;;;;;;28.33;4.82;;;;;;;24.58;83.66;98643.78;5049527;28;20037;-66
2023/11/04 09:42:36;;;;;;;22.95;4.82;;;;;;;24.47;84.20;98622.38;5050124;28;20108;-66
2023/11/04 09:45:10;;;;;;;25.40;4.57;;;;;;;24.13;84.00;98558.13;5014501;28;20140;-67
2023/11/04 09:47:36;;;;;;;22.63;4.55;;;;;;;24.58;84.45;98622.69;5050640;28;20021;-65
2023/11/04 09:50:02;;;;;;;27.95;5.10;;;;;;;24.56;83.86;98619.25;5050640;28;20421;-67
2023/11/04 09:52:28;;;;;;;24.90;5.90;;;;;;;24.45;83.84;98617.19;5050583;28;20035;-69
2023/11/04 09:54:57;;;;;;;24.98;4.63;;;;;;;24.51;83.41;98637.09;5050701;28;20132;-65
2023/11/04 09:57:23;;;;;;;;;;;;;;;24.44;83.38;98646.28;5049946;28;20383;-66
2023/11/04 09:59:48;;;;;;;30.70;5.55;;;;;;;24.36;83.59;98667.72;5046014;28;19924;-67
2023/11/04 10:02:15;;;;;;;34.00;5.50;;;;;;;24.27;83.79;98687.50;5049897;28;20021;-65
2023/11/04 10:04:40;;;;;;;23.55;5.32;;;;;;;24.15;84.24;98661.72;5048608;28;20028;-70
2023/11/04 10:07:07;;;;;;;22.52;5.22;;;;;;;24.13;84.69;98680.25;5049388;28;20021;-67
2023/11/04 10:09:33;;;;;;;53.28;8.07;;;;;;;24.08;85.22;98747.31;5050056;28;20394;-66
2023/11/04 10:11:59;;;;;;;32.60;5.88;;;;;;;20.81;97.39;98835.97;5049987;28;20021;-67
2023/11/04 10:14:25;;;;;;;15.95;3.03;;;;;;;19.76;100.00;98850.28;5031971;28;20158;-66
2023/11/04 10:16:51;;;;;;;34.85;4.50;;;;;;;19.12;100.00;98751.63;5031875;28;20040;-66
2023/11/04 10:19:17;;;;;;;20.38;3.75;;;;;;;19.12;100.00;98811.78;5049263;28;20024;-67
2023/11/04 10:21:44;;;;;;;43.40;3.35;;;;;;;18.54;100.00;98803.53;5049566;28;20025;-67
2023/11/04 10:24:10;;;;;;;10.20;1.90;;;;;;;17.78;100.00;98810.28;5049492;28;20091;-68
2023/11/04 10:26:36;;;;;;;3.10;0.93;;;;;;;17.21;100.00;98799.13;5049619;28;20373;-68
2023/11/04 10:29:02;;;;;;;4.65;1.05;;;;;;;17.02;100.00;98818.56;5049683;28;20025;-68
2023/11/04 10:31:30;;;;;;;1.80;0.70;;;;;;;16.60;100.00;98976.34;5049219;28;20032;-70
2023/11/04 10:34:02;;;;;;;12.30;2.42;;;;;;;14.58;100.00;98965.69;5049125;28;20027;-71
2023/11/04 10:36:32;;;;;;;4.38;1.50;;;;;;;13.69;100.00;98875.94;5049080;28;20429;-70
2023/11/04 10:39:02;;;;;;;6.85;1.98;;;;;;;13.54;100.00;98776.53;5047541;28;20044;-69
2023/11/04 10:41:42;;;;;;;77.68;36.17;;;;;;;13.57;100.00;98722.09;5049045;28;20044;-70
2023/11/04 10:44:28;;;;;;;10.63;4.28;;;;;;;14.13;100.00;98752.13;5031720;28;20033;-71
2023/11/04 10:47:29;;;;;;;15.13;4.13;;;;;;;14.58;100.00;98737.16;5049017;28;20044;-68
2023/11/04 10:50:16;;;;;;;5.25;3.00;;;;;;;14.94;100.00;98771.53;5037476;28;20032;-67
2023/11/04 10:52:50;;;;;;;13.13;3.58;;;;;;;15.12;100.00;98769.66;5049338;28;20467;-68
2023/11/04 10:55:21;;;;;;;10.98;2.65;;;;;;;14.51;100.00;98622.06;5006750;28;20034;-68
2023/11/04 10:57:52;;;;;;;7.45;2.40;;;;;;;15.36;100.00;98733.03;5006922;28;20048;-68
2023/11/04 11:00:23;;;;;;;6.53;1.60;;;;;;;15.33;100.00;98720.03;5006822;28;20045;-68
2023/11/04 11:02:51;;;;;;;3.42;2.10;;;;;;;15.47;100.00;98732.03;5006793;28;20026;-69
2023/11/04 11:05:22;;;;;;;6.78;2.30;;;;;;;15.50;100.00;98725.06;5006689;28;20049;-70
2023/11/04 11:07:48;;;;;;;7.45;1.90;;;;;;;15.67;100.00;98763.03;5006995;28;20061;-68
2023/11/04 11:10:16;;;;;;;6.38;2.03;;;;;;;15.80;100.00;98787.16;5006792;28;20041;-67
2023/11/04 11:13:14;;;;;;;12.30;2.22;;;;;;;15.79;100.00;98795.88;5007038;28;20479;-67
2023/11/04 11:15:40;;;;;;;10.68;1.83;;;;;;;15.72;100.00;98799.41;4995742;28;20431;-69